Time;durP1;ratioP1;P1;durP2;ratioP2;P2;SDS_P1;SDS_P2;PMS_P1;PMS_P2;Temp;Humidity;BMP_temperature;BMP_pressure;BME280_temperature;BME280_humidity;BME280_pressure;Samples;Min_cycle;Max_cycle;Signal;HPM_P1;HPM_P2
2021/01/18 04:01:25;;;;;;;20.97;10.68;;;;;;;-12.98;100.00;100011.62;1766020;77;21199;-61
2021/01/18 04:03:54;;;;;;;21.37;10.40;;;;;;;-13.01;100.00;100006.25;1787445;78;21489;-61
2021/01/18 04:06:22;;;;;;;20.12;9.98;;;;;;;-12.98;100.00;100006.61;1745965;80;21168;-61
2021/01/18 04:08:51;;;;;;;20.02;9.45;;;;;;;-12.94;100.00;100014.44;1786620;79;21103;-61
2021/01/18 04:11:21;;;;;;;15.95;8.60;;;;;;;-12.88;100.00;100015.52;1786051;79;22356;-61
2021/01/18 04:13:49;;;;;;;17.73;8.55;;;;;;;-12.78;100.00;100013.59;1787398;79;21076;-61
2021/01/18 04:16:18;;;;;;;21.68;8.88;;;;;;;-12.70;100.00;100016.70;1785864;79;20997;-61
2021/01/18 04:18:47;;;;;;;21.62;9.88;;;;;;;-12.68;100.00;100014.98;1784063;79;20933;-62
2021/01/18 04:21:16;;;;;;;19.57;9.93;;;;;;;-12.61;100.00;100025.66;1786359;79;21238;-62
2021/01/18 04:23:45;;;;;;;19.60;8.90;;;;;;;-12.53;100.00;100044.69;1782825;79;21187;-62
2021/01/18 04:26:14;;;;;;;18.50;9.15;;;;;;;-12.49;100.00;100042.09;1786669;78;21068;-62
2021/01/18 04:28:43;;;;;;;18.80;8.50;;;;;;;-12.43;100.00;100043.16;1784679;78;21115;-62
2021/01/18 04:31:12;;;;;;;15.48;8.38;;;;;;;-12.38;100.00;100038.41;1785839;79;21099;-61
2021/01/18 04:33:40;;;;;;;16.32;8.88;;;;;;;-12.39;100.00;100054.32;1784197;79;21158;-62
2021/01/18 04:36:09;;;;;;;18.92;9.38;;;;;;;-12.40;100.00;100061.47;1745910;81;21388;-61
2021/01/18 04:38:37;;;;;;;21.07;9.80;;;;;;;-12.40;100.00;100062.73;1788246;79;21020;-61
2021/01/18 04:41:09;;;;;;;21.85;9.45;;;;;;;-12.36;100.00;100060.52;1785632;79;20933;-61
2021/01/18 04:43:41;;;;;;;17.75;8.98;;;;;;;-12.30;100.00;100070.40;1788378;79;21122;-62
2021/01/18 04:46:12;;;;;;;20.75;8.20;;;;;;;-12.26;100.00;100071.14;1785923;79;21176;-62
2021/01/18 04:48:41;;;;;;;19.40;8.10;;;;;;;-12.20;100.00;100080.17;1784737;79;21341;-62
2021/01/18 04:51:11;;;;;;;17.62;7.67;;;;;;;-12.15;100.00;100083.39;1787627;79;21065;-61
2021/01/18 04:53:39;;;;;;;21.80;9.03;;;;;;;-12.13;100.00;100085.41;1732981;79;21146;-63
2021/01/18 04:56:35;;;;;;;21.42;8.93;;;;;;;-12.14;100.00;100090.88;1786125;79;21076;-62
2021/01/18 04:59:05;;;;;;;20.27;10.32;;;;;;;-12.09;100.00;100095.33;1785453;79;21115;-61
2021/01/18 05:01:33;;;;;;;22.48;9.80;;;;;;;-12.02;100.00;100105.59;1784269;79;21592;-61
2021/01/18 05:04:06;;;;;;;22.07;10.78;;;;;;;-11.96;100.00;100100.84;1777644;79;21151;-62
2021/01/18 05:06:46;;;;;;;23.52;9.90;;;;;;;-11.94;100.00;100104.11;1776248;79;22546;-61
2021/01/18 05:09:29;;;;;;;19.95;9.68;;;;;;;-11.87;100.00;100112.30;1775055;79;21033;-61
2021/01/18 05:11:59;;;;;;;18.87;9.75;;;;;;;-11.85;100.00;100110.14;1776992;79;21432;-60
2021/01/18 05:14:27;;;;;;;19.07;9.63;;;;;;;-11.83;100.00;100110.87;1776414;79;21207;-61
2021/01/18 05:16:58;;;;;;;17.80;8.20;;;;;;;-11.81;100.00;100106.63;1778308;79;21112;-62
2021/01/18 05:19:26;;;;;;;19.80;8.60;;;;;;;-11.82;100.00;100107.91;1772629;79;20926;-60
2021/01/18 05:21:55;;;;;;;20.25;10.50;;;;;;;-11.80;100.00;100102.42;1774905;80;21190;-60
2021/01/18 05:24:24;;;;;;;17.35;8.43;;;;;;;-11.77;100.00;100109.44;1774570;79;21372;-62
2021/01/18 05:27:07;;;;;;;15.05;7.67;;;;;;;-11.72;100.00;100111.81;1777121;79;22179;-60
2021/01/18 05:29:38;;;;;;;16.10;8.28;;;;;;;-11.67;100.00;100111.23;1774882;79;21666;-60
2021/01/18 05:32:23;;;;;;;17.95;8.63;;;;;;;-11.61;100.00;100111.49;1774121;80;21068;-60
2021/01/18 05:34:55;;;;;;;16.55;8.23;;;;;;;-11.57;100.00;100120.58;1776888;79;21661;-60
2021/01/18 05:37:24;;;;;;;20.17;8.98;;;;;;;-11.54;100.00;100123.83;1773556;79;21143;-61
2021/01/18 05:39:52;;;;;;;19.37;9.15;;;;;;;-11.48;100.00;100126.58;1771101;79;21862;-60
2021/01/18 05:42:22;;;;;;;18.92;10.28;;;;;;;-11.44;100.00;100126.05;1775331;79;20977;-61
2021/01/18 05:44:50;;;;;;;17.20;8.20;;;;;;;-11.39;100.00;100128.01;1772565;78;21886;-61
2021/01/18 05:47:20;;;;;;;20.95;9.75;;;;;;;-11.34;100.00;100134.97;1773466;79;21500;-60
2021/01/18 05:49:51;;;;;;;19.05;9.13;;;;;;;-11.31;100.00;100134.44;1773018;80;21184;-61
2021/01/18 05:52:28;;;;;;;18.95;8.43;;;;;;;-11.24;100.00;100131.73;1744185;80;21064;-61
2021/01/18 05:55:30;;;;;;;18.67;8.68;;;;;;;-11.24;100.00;100133.00;1784771;79;21100;-60
2021/01/18 05:58:01;;;;;;;18.42;10.40;;;;;;;-11.29;100.00;100136.48;1788064;78;21009;-61
2021/01/18 06:00:32;;;;;;;18.90;9.75;;;;;;;-11.31;100.00;100136.13;1791074;78;21677;-61
2021/01/18 06:03:06;;;;;;;22.00;10.33;;;;;;;-11.30;100.00;100131.48;1743319;81;21190;-61
2021/01/18 06:05:36;;;;;;;22.93;9.23;;;;;;;-11.24;100.00;100124.19;1749220;80;21917;-61
2021/01/18 06:08:17;;;;;;;20.70;9.18;;;;;;;-11.15;100.00;100110.05;1741388;80;21101;-61
2021/01/18 06:10:48;;;;;;;22.42;9.20;;;;;;;-11.04;100.00;100114.30;1735070;81;21150;-61
2021/01/18 06:13:24;;;;;;;23.10;10.20;;;;;;;-10.86;100.00;100119.16;1750448;80;21178;-61
2021/01/18 06:16:11;;;;;;;20.72;10.58;;;;;;;-10.56;100.00;100119.82;1787417;78;21053;-62
2021/01/18 06:18:40;;;;;;;22.10;11.28;;;;;;;-10.23;100.00;100119.46;1743295;81;21395;-62
2021/01/18 06:21:10;;;;;;;21.42;10.00;;;;;;;-9.77;100.00;100124.92;1742577;81;21634;-62
2021/01/18 06:23:40;;;;;;;22.98;12.03;;;;;;;-9.34;100.00;100129.57;1741407;81;21098;-60
2021/01/18 06:26:09;;;;;;;25.85;12.05;;;;;;;-8.91;100.00;100121.53;1747300;80;21124;-61
2021/01/18 06:28:38;;;;;;;22.48;11.78;;;;;;;-8.44;100.00;100117.47;1746256;80;21586;-62
2021/01/18 06:31:15;;;;;;;18.55;10.05;;;;;;;-7.99;100.00;100112.48;1738260;81;22120;-62
2021/01/18 06:33:46;;;;;;;22.95;12.33;;;;;;;-7.37;100.00;100108.33;1790425;78;21246;-62
2021/01/18 06:36:25;;;;;;;;;;;;;;;-6.73;100.00;100103.11;1787533;78;21128;-62
2021/01/18 06:39:06;;;;;;;21.82;11.15;;;;;;;-6.28;100.00;100096.59;1784900;78;20131;-61
2021/01/18 06:41:37;;;;;;;23.67;12.45;;;;;;;-5.82;100.00;100096.66;1745995;80;21073;-62
2021/01/18 06:44:07;;;;;;;20.12;10.95;;;;;;;-5.69;100.00;100093.80;1792986;78;21207;-61
2021/01/18 06:46:36;;;;;;;57.13;28.83;;;;;;;-5.60;100.00;100091.69;1744971;81;21130;-61
2021/01/18 06:49:05;;;;;;;20.77;11.50;;;;;;;-5.43;100.00;100082.22;1752099;80;21077;-63
2021/01/18 06:51:35;;;;;;;18.32;10.78;;;;;;;-5.09;100.00;100090.48;1786037;78;21143;-62
2021/01/18 06:54:05;;;;;;;20.17;12.07;;;;;;;-4.68;100.00;100088.09;1775790;79;21093;-61
2021/01/18 06:56:56;;;;;;;19.98;11.53;;;;;;;-4.44;100.00;100089.63;1703988;79;21496;-62
2021/01/18 06:59:55;;;;;;;18.70;10.93;;;;;;;-4.21;100.00;100082.34;1726657;79;21148;-62
2021/01/18 07:05:13;;;;;;;20.23;11.37;;;;;;;-3.36;100.00;100071.09;1819580;78;22758;-63
2021/01/18 07:07:41;;;;;;;20.65;11.18;;;;;;;-3.05;100.00;100072.47;1791294;79;20978;-61
2021/01/18 07:10:11;;;;;;;18.15;10.53;;;;;;;-2.68;100.00;100071.78;1765352;79;21251;-62
2021/01/18 07:12:39;;;;;;;18.98;10.95;;;;;;;-2.49;100.00;100077.27;1796490;78;21033;-62
2021/01/18 07:15:09;;;;;;;17.57;10.55;;;;;;;-2.81;100.00;100082.77;1791538;78;21089;-62
2021/01/18 07:17:53;;;;;;;19.92;10.60;;;;;;;-3.16;100.00;100085.09;1798579;79;20984;-61
2021/01/18 07:20:28;;;;;;;19.35;11.12;;;;;;;-3.29;100.00;100085.08;1798465;79;21085;-62
2021/01/18 07:23:29;;;;;;;19.37;11.45;;;;;;;-3.58;100.00;100081.83;1795673;78;21200;-61
2021/01/18 07:26:11;;;;;;;17.52;10.38;;;;;;;-3.31;100.00;100079.25;1793147;78;21228;-59
2021/01/18 07:28:40;;;;;;;18.87;10.88;;;;;;;-2.68;100.00;100086.62;1786320;78;21619;-60
2021/01/18 07:31:08;;;;;;;16.45;9.05;;;;;;;-2.52;100.00;100093.59;1789580;79;21626;-59
2021/01/18 07:33:37;;;;;;;16.57;11.33;;;;;;;-2.36;100.00;100089.55;1733984;80;21509;-62
2021/01/18 07:36:07;;;;;;;16.52;10.28;;;;;;;-2.09;100.00;100094.49;1700080;81;22527;-61
2021/01/18 07:38:37;;;;;;;16.40;10.18;;;;;;;-1.99;100.00;100104.90;1750043;81;21251;-60
2021/01/18 07:41:12;;;;;;;18.07;10.43;;;;;;;-2.11;100.00;100100.65;1748760;81;21377;-61
2021/01/18 07:43:44;;;;;;;19.95;11.43;;;;;;;-2.12;100.00;100103.67;1750386;81;21176;-61
2021/01/18 07:46:31;;;;;;;19.05;10.70;;;;;;;-1.88;100.00;100101.61;1750380;81;21097;-60
2021/01/18 07:49:17;;;;;;;20.68;12.80;;;;;;;-1.33;100.00;100105.34;1752934;81;21383;-60
2021/01/18 07:51:45;;;;;;;20.30;12.20;;;;;;;-0.71;100.00;100111.93;1743149;81;21112;-61
2021/01/18 07:54:33;;;;;;;16.87;10.78;;;;;;;-0.58;100.00;100119.03;1751557;81;21112;-61
2021/01/18 07:57:38;;;;;;;16.77;10.55;;;;;;;-0.68;100.00;100118.08;1731846;81;21128;-63
2021/01/18 08:00:24;;;;;;;15.63;9.55;;;;;;;-1.06;100.00;100113.60;1752270;81;21288;-62
2021/01/18 08:02:54;;;;;;;18.15;11.15;;;;;;;-1.41;100.00;100126.35;1749029;81;22316;-59
2021/01/18 08:05:34;;;;;;;18.48;11.40;;;;;;;-1.76;100.00;100123.27;1731419;81;21631;-60
2021/01/18 08:08:27;;;;;;;17.48;10.95;;;;;;;-1.76;100.00;100133.95;1740637;81;21551;-59
2021/01/18 08:11:05;;;;;;;21.60;11.57;;;;;;;-1.52;100.00;100129.66;1733860;82;21117;-62
2021/01/18 08:13:56;;;;;;;18.12;11.68;;;;;;;-1.39;100.00;100140.32;1739406;82;21586;-60
2021/01/18 08:16:39;;;;;;;18.10;11.73;;;;;;;-1.34;100.00;100149.28;1734419;82;27266;-60
2021/01/18 08:19:20;;;;;;;23.57;12.88;;;;;;;-1.44;98.86;100149.57;1734572;82;21162;-61
2021/01/18 08:22:04;;;;;;;19.85;11.65;;;;;;;-1.43;100.00;100149.95;1724900;81;20993;-61
2021/01/18 08:24:38;;;;;;;21.23;11.40;;;;;;;-1.47;100.00;100151.91;1723812;82;21068;-61
2021/01/18 08:27:07;;;;;;;19.87;11.50;;;;;;;-1.25;100.00;100151.63;1724576;82;21238;-61
2021/01/18 08:29:45;;;;;;;21.68;13.30;;;;;;;-1.07;98.13;100153.34;1715687;82;21375;-61
2021/01/18 08:32:34;;;;;;;19.90;12.93;;;;;;;-1.00;99.63;100151.98;1766318;80;21466;-59
2021/01/18 08:35:22;;;;;;;19.85;11.80;;;;;;;-0.98;100.00;100155.25;1756822;80;21170;-59
2021/01/18 08:38:00;;;;;;;21.05;13.00;;;;;;;-1.07;100.00;100151.59;1763854;80;22443;-59
2021/01/18 08:40:46;;;;;;;22.93;14.43;;;;;;;-1.09;100.00;100148.81;1764759;80;20999;-60
2021/01/18 08:43:15;;;;;;;21.35;12.47;;;;;;;-1.09;99.28;100150.09;1763835;80;21502;-60
2021/01/18 08:45:49;;;;;;;23.57;14.03;;;;;;;-1.00;97.58;100155.34;1767059;80;21212;-59
2021/01/18 08:48:29;;;;;;;20.97;13.18;;;;;;;-0.83;95.98;100154.13;1760763;80;21228;-60
2021/01/18 08:50:59;;;;;;;21.75;13.35;;;;;;;-0.67;96.16;100153.81;1753445;80;21352;-60
2021/01/18 08:53:43;;;;;;;23.67;13.48;;;;;;;-0.76;93.51;100143.80;1769558;80;21157;-59
2021/01/18 08:56:26;;;;;;;24.45;13.65;;;;;;;-0.91;91.39;100150.05;1732801;82;22208;-60
2021/01/18 08:58:55;;;;;;;23.00;14.30;;;;;;;-1.05;89.78;100143.83;1765969;80;21563;-60
2021/01/18 09:01:30;;;;;;;22.90;13.55;;;;;;;-0.89;87.46;100137.94;1766400;80;21145;-59
2021/01/18 09:03:59;;;;;;;20.82;12.30;;;;;;;-0.83;87.03;100132.38;1768841;79;21189;-59
2021/01/18 09:06:27;;;;;;;20.95;13.13;;;;;;;-0.50;84.63;100129.51;1729455;80;21285;-62
2021/01/18 09:09:05;;;;;;;23.50;13.48;;;;;;;-0.20;78.81;100130.69;1725193;80;21411;-61
2021/01/18 09:11:34;;;;;;;22.87;13.72;;;;;;;-0.15;73.18;100129.86;1742840;81;21157;-62
2021/01/18 09:14:04;;;;;;;20.88;13.58;;;;;;;-0.06;66.49;100122.30;1741914;81;21113;-60
2021/01/18 09:16:32;;;;;;;23.70;13.20;;;;;;;0.08;59.17;100114.03;1711973;81;21209;-60
2021/01/18 09:19:07;;;;;;;23.07;13.85;;;;;;;-0.06;54.71;100113.80;1746728;81;21156;-60
2021/01/18 09:21:37;;;;;;;24.10;14.65;;;;;;;-0.26;51.91;100109.74;1743032;81;21902;-60
2021/01/18 09:24:07;;;;;;;23.52;13.83;;;;;;;-0.27;49.75;100099.13;1748311;81;21018;-61
2021/01/18 09:26:35;;;;;;;18.37;12.95;;;;;;;0.05;49.44;100098.41;1745474;81;21438;-60
2021/01/18 09:29:03;;;;;;;22.00;13.58;;;;;;;0.24;46.41;100089.62;1743101;81;20994;-62
2021/01/18 09:31:31;;;;;;;23.50;14.23;;;;;;;0.03;44.63;100083.61;1740626;81;21579;-61
2021/01/18 09:34:12;;;;;;;24.27;15.85;;;;;;;-0.29;44.53;100084.83;1742474;81;21385;-62
2021/01/18 09:36:44;;;;;;;28.15;14.28;;;;;;;-0.42;44.37;100082.37;1747207;81;21027;-61
2021/01/18 09:39:22;;;;;;;22.13;13.30;;;;;;;-0.36;44.93;100084.95;1735019;81;21220;-60
2021/01/18 09:41:55;;;;;;;23.95;13.10;;;;;;;-0.24;43.62;100080.16;1744988;81;21165;-60
2021/01/18 09:44:23;;;;;;;22.07;13.35;;;;;;;-0.34;43.54;100076.66;1749474;81;21264;-60
2021/01/18 09:46:52;;;;;;;24.07;15.65;;;;;;;-0.47;43.31;100071.67;1738315;81;21584;-61
2021/01/18 09:49:28;;;;;;;25.75;15.05;;;;;;;-0.54;43.85;100076.91;1790881;79;21186;-60
2021/01/18 09:51:56;;;;;;;22.73;13.25;;;;;;;-0.47;43.06;100075.52;1781182;79;21212;-60
2021/01/18 09:54:25;;;;;;;20.43;11.90;;;;;;;-0.63;43.11;100078.89;1787097;79;21616;-59
2021/01/18 09:56:54;;;;;;;23.45;14.07;;;;;;;-0.72;43.56;100078.28;1730760;80;21138;-60
2021/01/18 09:59:25;;;;;;;20.12;12.30;;;;;;;-0.71;44.08;100083.31;1746882;81;21377;-60
2021/01/18 10:01:55;;;;;;;22.22;13.40;;;;;;;-0.55;43.70;100077.37;1739176;81;21571;-60
2021/01/18 10:04:27;;;;;;;20.72;12.90;;;;;;;-0.52;42.36;100074.59;1734105;81;21601;-60
2021/01/18 10:07:06;;;;;;;20.03;13.00;;;;;;;-0.86;42.44;100071.19;1718505;82;21143;-61
2021/01/18 10:09:35;;;;;;;23.90;12.80;;;;;;;-1.03;43.80;100069.05;1669119;82;23237;-59
2021/01/18 10:12:06;;;;;;;21.17;12.40;;;;;;;-0.92;44.26;100065.23;1716370;82;22215;-60
2021/01/18 10:14:34;;;;;;;21.33;12.85;;;;;;;-0.85;43.48;100061.30;1713312;82;21145;-59
2021/01/18 10:17:08;;;;;;;20.12;12.63;;;;;;;-0.81;43.68;100067.00;1730191;81;21612;-60
2021/01/18 10:19:39;;;;;;;22.32;13.80;;;;;;;-0.85;42.72;100070.72;1702339;83;21257;-60
2021/01/18 10:22:16;;;;;;;19.30;12.33;;;;;;;-0.92;42.66;100071.63;1761878;80;21030;-59
2021/01/18 10:24:55;;;;;;;21.85;13.70;;;;;;;-0.87;42.27;100064.89;1756489;80;21259;-61
2021/01/18 10:27:28;;;;;;;23.65;14.38;;;;;;;-1.00;42.53;100060.69;1764127;80;21652;-59
2021/01/18 10:30:13;;;;;;;25.32;14.33;;;;;;;-1.11;42.48;100058.11;1768361;80;21343;-59
2021/01/18 10:32:44;;;;;;;25.00;14.18;;;;;;;-1.18;43.33;100060.76;1764467;80;21161;-59
2021/01/18 10:35:32;;;;;;;22.98;14.28;;;;;;;-1.25;42.44;100065.53;1755710;80;21643;-59
2021/01/18 10:38:20;;;;;;;22.90;13.30;;;;;;;-1.59;42.10;100070.14;1761190;80;22144;-59
2021/01/18 10:41:08;;;;;;;24.45;14.68;;;;;;;-1.97;42.63;100066.00;1755094;80;21694;-59
2021/01/18 10:43:38;;;;;;;23.77;14.45;;;;;;;-2.02;43.16;100061.69;1762508;80;21733;-59
2021/01/18 10:46:16;;;;;;;24.52;14.18;;;;;;;-1.97;43.52;100070.67;1708197;83;22717;-59
2021/01/18 10:48:56;;;;;;;23.85;15.08;;;;;;;-1.87;44.63;100074.66;1769600;80;21105;-59
2021/01/18 10:51:28;;;;;;;24.87;14.33;;;;;;;-1.73;44.92;100069.41;1761384;80;21439;-59
2021/01/18 10:53:58;;;;;;;25.25;14.47;;;;;;;-1.66;44.48;100065.14;1705041;83;21253;-59
2021/01/18 10:56:34;;;;;;;22.75;13.72;;;;;;;-1.84;44.56;100064.23;1693399;83;21129;-59
2021/01/18 10:59:02;;;;;;;21.82;13.98;;;;;;;-2.00;44.13;100057.30;1767264;80;20994;-59
2021/01/18 11:01:31;;;;;;;23.70;14.83;;;;;;;-2.30;44.71;100043.65;1763100;80;21113;-59
2021/01/18 11:04:06;;;;;;;29.42;13.58;;;;;;;-2.47;45.31;100037.95;1763755;79;21262;-58
2021/01/18 11:06:35;;;;;;;23.50;12.10;;;;;;;-2.71;45.36;100032.78;1779669;79;21009;-59
2021/01/18 11:09:04;;;;;;;22.95;14.25;;;;;;;-2.88;45.85;100034.36;1739857;82;21109;-62
2021/01/18 11:11:33;;;;;;;24.05;13.93;;;;;;;-3.08;46.44;100037.43;1736244;82;22447;-60
2021/01/18 11:14:04;;;;;;;22.00;12.80;;;;;;;-3.08;46.82;100032.33;1732609;79;21129;-61
2021/01/18 11:16:33;;;;;;;21.75;12.82;;;;;;;-2.94;47.48;100035.60;1780638;79;21241;-60
2021/01/18 11:19:03;;;;;;;21.35;13.40;;;;;;;-2.97;46.81;100023.05;1781072;79;21555;-61
2021/01/18 11:21:32;;;;;;;23.80;13.80;;;;;;;-3.22;46.99;100018.77;1715340;82;21854;-61
2021/01/18 11:24:00;;;;;;;21.95;14.13;;;;;;;-3.38;47.64;100007.92;1727804;81;21224;-59
2021/01/18 11:26:29;;;;;;;24.45;14.28;;;;;;;-3.43;47.67;100020.16;1778927;78;21140;-60
2021/01/18 11:28:58;;;;;;;23.20;14.00;;;;;;;-3.52;48.53;100023.31;1783659;79;21374;-62
2021/01/18 11:31:27;;;;;;;25.55;14.65;;;;;;;-3.60;48.46;100025.52;1714426;82;21580;-60
2021/01/18 11:33:56;;;;;;;21.65;12.15;;;;;;;-3.73;49.14;100033.13;1779790;79;21147;-60
2021/01/18 11:36:25;;;;;;;26.23;15.18;;;;;;;-3.78;49.94;100033.43;1772878;79;20930;-60
2021/01/18 11:38:53;;;;;;;22.98;13.78;;;;;;;-3.82;51.11;100033.72;1783716;79;21122;-61
2021/01/18 11:41:23;;;;;;;23.90;13.48;;;;;;;-3.80;50.86;100027.59;1773099;79;21202;-60
2021/01/18 11:43:52;;;;;;;21.10;10.80;;;;;;;-3.94;49.70;100026.38;1782747;79;21628;-61
2021/01/18 11:46:20;;;;;;;24.02;13.75;;;;;;;-4.25;50.19;100014.27;1786951;79;21149;-61
2021/01/18 11:48:49;;;;;;;29.02;15.03;;;;;;;-4.52;51.61;100012.16;1780054;79;21219;-61
2021/01/18 11:51:18;;;;;;;28.70;16.27;;;;;;;-4.67;53.05;100010.08;1782819;79;21133;-60
2021/01/18 11:53:47;;;;;;;22.00;12.43;;;;;;;-4.72;54.55;100015.90;1774819;79;21355;-60
2021/01/18 11:56:17;;;;;;;28.20;16.77;;;;;;;-4.76;54.87;100014.45;1784565;79;21213;-59
2021/01/18 11:58:45;;;;;;;23.40;13.78;;;;;;;-4.88;54.34;100008.38;1783181;79;21177;-60
2021/01/18 12:01:13;;;;;;;24.23;13.85;;;;;;;-5.06;55.14;100019.61;1773129;79;21510;-60
2021/01/18 12:03:42;;;;;;;22.13;12.43;;;;;;;-5.21;56.11;100035.29;1779591;79;21196;-59
2021/01/18 12:06:11;;;;;;;28.10;15.20;;;;;;;-5.38;56.02;100043.85;1790718;78;21594;-61
2021/01/18 12:08:39;;;;;;;25.62;13.45;;;;;;;-5.71;58.16;100048.66;1792858;79;21654;-62
2021/01/18 12:11:08;;;;;;;25.95;13.20;;;;;;;-5.99;61.84;100053.62;1780903;79;21192;-62
2021/01/18 12:13:37;;;;;;;23.45;14.20;;;;;;;-6.13;62.54;100060.27;1784885;79;21655;-60
2021/01/18 12:16:05;;;;;;;24.57;13.78;;;;;;;-6.23;64.07;100074.78;1787883;79;21477;-60
2021/01/18 12:18:35;;;;;;;26.52;15.35;;;;;;;-6.30;66.01;100065.85;1731719;80;21165;-62
2021/01/18 12:21:04;;;;;;;24.55;14.55;;;;;;;-6.35;65.23;100070.36;1747829;80;21110;-60
2021/01/18 12:23:32;;;;;;;38.63;20.55;;;;;;;-6.41;65.24;100073.56;1748325;80;21089;-60
2021/01/18 12:26:01;;;;;;;43.45;22.87;;;;;;;-6.36;65.74;100075.88;1745660;80;21109;-60
2021/01/18 12:28:30;;;;;;;22.32;13.43;;;;;;;-6.27;66.66;100078.38;1740191;80;21197;-59
2021/01/18 12:31:00;;;;;;;22.32;12.25;;;;;;;-6.19;68.27;100085.95;1748549;80;21382;-62
2021/01/18 12:33:29;;;;;;;18.55;10.72;;;;;;;-6.28;69.47;100090.25;1750597;81;21181;-60
2021/01/18 12:35:59;;;;;;;20.25;10.48;;;;;;;-6.47;71.23;100099.26;1754813;81;21185;-61
2021/01/18 12:38:28;;;;;;;23.55;12.58;;;;;;;-6.73;72.16;100110.71;1782424;79;21130;-60
2021/01/18 12:40:59;;;;;;;29.18;14.75;;;;;;;-7.11;74.82;100108.80;1787303;79;21125;-59
2021/01/18 12:43:28;;;;;;;34.67;17.62;;;;;;;-7.49;77.80;100125.82;1781689;79;22108;-61
2021/01/18 12:46:00;;;;;;;34.27;19.52;;;;;;;-7.95;81.20;100131.27;1784905;79;21030;-60
2021/01/18 12:48:28;;;;;;;31.90;17.37;;;;;;;-8.41;83.46;100133.73;1787289;79;21236;-61
2021/01/18 12:50:56;;;;;;;35.25;18.27;;;;;;;-8.89;86.75;100144.59;1789934;79;21568;-60
2021/01/18 12:56:28;;;;;;;36.28;24.23;;;;;;;-9.55;93.04;100158.52;1803865;76;28035;-61
2021/01/18 12:58:57;;;;;;;25.20;15.50;;;;;;;-9.74;94.92;100163.06;1743698;81;21655;-60
2021/01/18 13:01:31;;;;;;;32.35;15.68;;;;;;;-9.92;95.96;100164.14;1765426;79;22126;-60
2021/01/18 13:04:00;;;;;;;30.23;13.83;;;;;;;-10.14;96.77;100164.52;1760142;79;21003;-61
2021/01/18 13:06:38;;;;;;;32.53;16.20;;;;;;;-10.33;98.69;100165.19;1764640;78;21085;-60
2021/01/18 13:09:11;;;;;;;32.13;14.43;;;;;;;-10.44;100.00;100165.18;1761728;78;21115;-59
2021/01/18 13:11:40;;;;;;;30.77;15.78;;;;;;;-10.55;100.00;100167.62;1725767;81;21203;-60
2021/01/18 13:14:09;;;;;;;36.38;16.85;;;;;;;-10.58;100.00;100170.23;1739961;80;21704;-60
2021/01/18 13:16:39;;;;;;;33.20;16.27;;;;;;;-10.56;100.00;100163.46;1748437;80;21021;-60
2021/01/18 13:19:09;;;;;;;39.08;17.98;;;;;;;-10.51;100.00;100167.08;1744340;80;21478;-60
2021/01/18 13:21:37;;;;;;;60.25;33.40;;;;;;;-10.42;100.00;100186.91;1741140;80;21196;-61
2021/01/18 13:24:07;;;;;;;36.58;18.27;;;;;;;-10.39;100.00;100182.21;1737906;80;21536;-60
2021/01/18 13:26:37;;;;;;;54.98;28.55;;;;;;;-10.42;100.00;100189.87;1748312;80;21402;-59
2021/01/18 13:29:05;;;;;;;44.73;22.02;;;;;;;-10.42;100.00;100208.77;1781354;78;21173;-60
2021/01/18 13:31:40;;;;;;;44.00;23.00;;;;;;;-10.45;100.00;100205.11;1770542;78;20994;-60
2021/01/18 13:34:09;;;;;;;46.80;22.45;;;;;;;-10.55;100.00;100202.88;1752185;80;22532;-59
2021/01/18 13:36:38;;;;;;;62.75;27.20;;;;;;;-10.65;100.00;100208.27;1752101;80;20952;-59
2021/01/18 13:39:07;;;;;;;42.85;24.40;;;;;;;-10.75;100.00;100205.69;1748242;80;21401;-59
2021/01/18 13:41:36;;;;;;;49.10;27.07;;;;;;;-10.80;100.00;100204.55;1748562;80;21191;-59
2021/01/18 13:44:06;;;;;;;48.73;26.05;;;;;;;-10.88;100.00;100204.80;1743582;80;21605;-59
2021/01/18 13:46:34;;;;;;;41.75;22.02;;;;;;;-10.94;100.00;100210.48;1751496;80;21114;-60
2021/01/18 13:49:02;;;;;;;41.42;22.52;;;;;;;-11.04;100.00;100206.98;1745248;80;21116;-60
2021/01/18 13:51:32;;;;;;;40.38;18.77;;;;;;;-11.15;100.00;100201.45;1743180;80;21220;-59
2021/01/18 13:54:00;;;;;;;37.67;18.15;;;;;;;-11.27;100.00;100210.64;1739210;80;21223;-59
2021/01/18 13:56:29;;;;;;;38.75;17.20;;;;;;;-11.38;100.00;100209.70;1735177;80;21158;-60
2021/01/18 13:58:57;;;;;;;48.05;23.57;;;;;;;-11.48;100.00;100217.56;1736594;81;21561;-60
2021/01/18 14:01:27;;;;;;;36.73;17.75;;;;;;;-11.60;100.00;100219.56;1733215;80;21127;-61
2021/01/18 14:03:57;;;;;;;43.15;20.82;;;;;;;-11.66;100.00;100211.39;1744480;79;21495;-60
2021/01/18 14:06:35;;;;;;;36.88;18.20;;;;;;;-11.74;100.00;100223.33;1753446;80;21071;-60
2021/01/18 14:09:11;;;;;;;32.63;17.27;;;;;;;-11.82;100.00;100222.29;1722449;81;21120;-60
2021/01/18 14:11:41;;;;;;;33.92;17.40;;;;;;;-11.90;100.00;100225.48;1732788;79;21200;-59
2021/01/18 14:14:10;;;;;;;34.83;15.83;;;;;;;-11.98;100.00;100227.39;1732993;79;21634;-59
2021/01/18 14:16:42;;;;;;;36.17;16.48;;;;;;;-12.03;100.00;100237.14;1731351;81;21371;-61
2021/01/18 14:19:11;;;;;;;47.55;20.95;;;;;;;-12.09;100.00;100235.20;1758233;79;21058;-61
2021/01/18 14:21:39;;;;;;;36.45;18.05;;;;;;;-12.14;100.00;100229.49;1741810;80;21687;-61
2021/01/18 14:24:08;;;;;;;63.20;30.37;;;;;;;-12.20;100.00;100230.90;1753785;79;20983;-61
2021/01/18 14:26:39;;;;;;;217.75;104.58;;;;;;;-12.28;100.00;100231.92;1761554;79;21473;-61
2021/01/18 14:29:07;;;;;;;217.93;92.85;;;;;;;-12.36;100.00;100234.25;1748658;80;21201;-61
2021/01/18 14:31:37;;;;;;;136.03;59.63;;;;;;;-12.53;100.00;100235.50;1755841;79;21483;-59
2021/01/18 14:34:06;;;;;;;199.87;71.82;;;;;;;-12.68;100.00;100250.94;1746093;79;21218;-60
2021/01/18 14:36:37;;;;;;;302.10;118.53;;;;;;;-12.80;100.00;100260.03;1749663;79;21011;-60
2021/01/18 14:39:06;;;;;;;123.18;49.77;;;;;;;-12.89;100.00;100263.55;1741206;80;21117;-60
2021/01/18 14:41:34;;;;;;;71.62;32.75;;;;;;;-12.91;100.00;100261.95;1740645;80;21298;-60
2021/01/18 14:44:05;;;;;;;82.12;42.55;;;;;;;-12.93;100.00;100263.23;1739402;80;21143;-60
2021/01/18 14:46:35;;;;;;;100.47;43.48;;;;;;;-12.90;100.00;100266.93;1735735;80;21576;-60
2021/01/18 14:49:05;;;;;;;117.97;52.88;;;;;;;-12.87;100.00;100269.38;1737717;80;21137;-60
2021/01/18 14:51:35;;;;;;;69.37;33.33;;;;;;;-12.84;100.00;100260.92;1732382;80;21263;-60
2021/01/18 14:54:05;;;;;;;66.15;33.58;;;;;;;-12.81;100.00;100274.23;1741584;80;21164;-60
2021/01/18 14:56:35;;;;;;;63.92;31.85;;;;;;;-12.79;100.00;100275.47;1732663;80;21565;-62
2021/01/18 14:59:07;;;;;;;55.55;28.10;;;;;;;-12.71;100.00;100270.27;1740080;80;21258;-61
2021/01/18 15:01:39;;;;;;;51.05;25.17;;;;;;;-12.66;100.00;100270.98;1735701;80;21257;-60
2021/01/18 15:04:06;;;;;;;46.02;25.20;;;;;;;-12.63;100.00;100272.98;1736612;80;21570;-60
2021/01/18 15:06:36;;;;;;;54.27;29.27;;;;;;;-12.64;100.00;100281.82;1764025;78;21535;-60
2021/01/18 15:09:08;;;;;;;41.10;21.48;;;;;;;-12.64;100.00;100283.89;1762764;79;21010;-62
2021/01/18 15:11:37;;;;;;;41.85;21.93;;;;;;;-12.66;100.00;100274.74;1743314;81;21081;-60
2021/01/18 15:14:06;;;;;;;35.17;16.05;;;;;;;-12.71;100.00;100281.13;1802928;77;21133;-61
2021/01/18 15:16:36;;;;;;;46.83;25.68;;;;;;;-12.77;100.00;100277.06;1796312;77;21121;-61
2021/01/18 15:19:04;;;;;;;34.35;17.80;;;;;;;-12.80;100.00;100272.57;1794818;78;21399;-61
2021/01/18 15:21:33;;;;;;;54.67;24.27;;;;;;;-12.80;100.00;100278.84;1788933;77;21215;-63
2021/01/18 15:24:02;;;;;;;54.27;25.80;;;;;;;-12.78;100.00;100285.46;1799224;77;21451;-60
2021/01/18 15:26:31;;;;;;;76.50;30.90;;;;;;;-12.71;100.00;100279.88;1798603;77;20988;-60
2021/01/18 15:28:59;;;;;;;72.45;36.05;;;;;;;-12.67;100.00;100276.43;1798155;78;20983;-61
2021/01/18 15:31:28;;;;;;;173.85;92.30;;;;;;;-12.63;100.00;100288.48;1792058;77;23487;-60